sensor_id;sensor_type;location;lat;lon;timestamp;P1;durP1;ratioP1;P2;durP2;ratioP2
41653;SDS011;30790;52.030;7.110;2022-07-06T00:01:36;4.32;;;1.30;;
41653;SDS011;30790;52.030;7.110;2022-07-06T00:04:02;5.85;;;1.33;;
41653;SDS011;30790;52.030;7.110;2022-07-06T00:06:28;7.28;;;1.27;;
41653;SDS011;30790;52.030;7.110;2022-07-06T00:08:53;2.22;;;0.80;;
41653;SDS011;30790;52.030;7.110;2022-07-06T00:11:18;2.00;;;0.82;;
41653;SDS011;30790;52.030;7.110;2022-07-06T00:13:44;7.30;;;1.13;;
41653;SDS011;30790;52.030;7.110;2022-07-06T00:16:09;1.52;;;0.70;;
41653;SDS011;30790;52.030;7.110;2022-07-06T00:18:35;1.80;;;0.75;;
41653;SDS011;30790;52.030;7.110;2022-07-06T00:21:00;3.22;;;1.52;;
41653;SDS011;30790;52.030;7.110;2022-07-06T00:23:25;5.75;;;1.13;;
41653;SDS011;30790;52.030;7.110;2022-07-06T00:25:50;3.53;;;0.80;;
41653;SDS011;30790;52.030;7.110;2022-07-06T00:28:16;4.07;;;0.93;;
41653;SDS011;30790;52.030;7.110;2022-07-06T00:30:42;2.55;;;0.98;;
41653;SDS011;30790;52.030;7.110;2022-07-06T00:33:07;6.70;;;1.15;;
41653;SDS011;30790;52.030;7.110;2022-07-06T00:35:32;4.75;;;1.17;;
41653;SDS011;30790;52.030;7.110;2022-07-06T00:37:58;4.45;;;1.00;;
41653;SDS011;30790;52.030;7.110;2022-07-06T00:40:23;3.25;;;0.77;;
41653;SDS011;30790;52.030;7.110;2022-07-06T00:42:49;2.92;;;0.98;;
41653;SDS011;30790;52.030;7.110;2022-07-06T00:45:15;2.72;;;0.80;;
41653;SDS011;30790;52.030;7.110;2022-07-06T00:47:42;1.17;;;0.70;;
41653;SDS011;30790;52.030;7.110;2022-07-06T00:50:09;12.93;;;1.00;;
41653;SDS011;30790;52.030;7.110;2022-07-06T00:52:42;2.67;;;0.80;;
41653;SDS011;30790;52.030;7.110;2022-07-06T00:55:12;3.85;;;0.80;;
41653;SDS011;30790;52.030;7.110;2022-07-06T00:57:38;5.32;;;0.93;;
41653;SDS011;30790;52.030;7.110;2022-07-06T01:00:06;2.58;;;0.93;;
41653;SDS011;30790;52.030;7.110;2022-07-06T01:02:33;2.33;;;0.95;;
41653;SDS011;30790;52.030;7.110;2022-07-06T01:05:00;3.53;;;1.10;;
41653;SDS011;30790;52.030;7.110;2022-07-06T01:07:25;5.30;;;0.93;;
41653;SDS011;30790;52.030;7.110;2022-07-06T01:09:52;1.65;;;0.80;;
41653;SDS011;30790;52.030;7.110;2022-07-06T01:12:18;4.90;;;0.80;;
41653;SDS011;30790;52.030;7.110;2022-07-06T01:14:43;1.90;;;0.63;;
41653;SDS011;30790;52.030;7.110;2022-07-06T01:17:10;1.75;;;0.60;;
41653;SDS011;30790;52.030;7.110;2022-07-06T01:19:36;2.92;;;0.82;;
41653;SDS011;30790;52.030;7.110;2022-07-06T01:22:01;2.47;;;0.70;;
41653;SDS011;30790;52.030;7.110;2022-07-06T01:24:27;1.90;;;0.88;;
41653;SDS011;30790;52.030;7.110;2022-07-06T01:26:52;1.40;;;0.70;;
41653;SDS011;30790;52.030;7.110;2022-07-06T01:29:17;3.05;;;0.68;;
41653;SDS011;30790;52.030;7.110;2022-07-06T01:31:47;3.30;;;0.90;;
41653;SDS011;30790;52.030;7.110;2022-07-06T01:34:14;1.33;;;0.52;;
41653;SDS011;30790;52.030;7.110;2022-07-06T01:36:40;1.52;;;0.90;;
41653;SDS011;30790;52.030;7.110;2022-07-06T01:39:06;3.85;;;0.90;;
41653;SDS011;30790;52.030;7.110;2022-07-06T01:41:33;1.25;;;0.77;;
41653;SDS011;30790;52.030;7.110;2022-07-06T01:43:59;1.20;;;0.65;;
41653;SDS011;30790;52.030;7.110;2022-07-06T01:46:24;3.30;;;1.00;;
41653;SDS011;30790;52.030;7.110;2022-07-06T01:48:50;1.98;;;0.60;;
41653;SDS011;30790;52.030;7.110;2022-07-06T01:51:15;3.07;;;1.17;;
41653;SDS011;30790;52.030;7.110;2022-07-06T01:53:40;3.38;;;1.00;;
41653;SDS011;30790;52.030;7.110;2022-07-06T01:56:06;2.95;;;0.70;;
41653;SDS011;30790;52.030;7.110;2022-07-06T01:58:32;2.88;;;0.70;;
41653;SDS011;30790;52.030;7.110;2022-07-06T02:00:57;1.48;;;0.60;;
41653;SDS011;30790;52.030;7.110;2022-07-06T02:03:23;2.40;;;0.70;;
41653;SDS011;30790;52.030;7.110;2022-07-06T02:05:48;0.82;;;0.60;;
41653;SDS011;30790;52.030;7.110;2022-07-06T02:08:13;2.88;;;0.90;;
41653;SDS011;30790;52.030;7.110;2022-07-06T02:10:39;2.35;;;0.90;;
41653;SDS011;30790;52.030;7.110;2022-07-06T02:13:05;1.65;;;0.75;;
41653;SDS011;30790;52.030;7.110;2022-07-06T02:15:30;3.08;;;1.13;;
41653;SDS011;30790;52.030;7.110;2022-07-06T02:17:55;1.20;;;0.70;;
41653;SDS011;30790;52.030;7.110;2022-07-06T02:20:21;5.32;;;0.90;;
41653;SDS011;30790;52.030;7.110;2022-07-06T02:22:46;1.85;;;0.60;;
41653;SDS011;30790;52.030;7.110;2022-07-06T02:25:11;1.85;;;0.82;;
41653;SDS011;30790;52.030;7.110;2022-07-06T02:27:36;1.85;;;0.73;;
41653;SDS011;30790;52.030;7.110;2022-07-06T02:30:02;1.13;;;0.80;;
41653;SDS011;30790;52.030;7.110;2022-07-06T02:32:27;1.40;;;0.73;;
41653;SDS011;30790;52.030;7.110;2022-07-06T02:34:53;2.40;;;0.70;;
41653;SDS011;30790;52.030;7.110;2022-07-06T02:37:18;1.27;;;0.88;;
41653;SDS011;30790;52.030;7.110;2022-07-06T02:39:43;2.53;;;0.88;;
41653;SDS011;30790;52.030;7.110;2022-07-06T02:42:08;2.53;;;0.80;;
41653;SDS011;30790;52.030;7.110;2022-07-06T02:44:34;2.50;;;0.80;;
41653;SDS011;30790;52.030;7.110;2022-07-06T02:46:59;2.20;;;0.70;;
41653;SDS011;30790;52.030;7.110;2022-07-06T02:49:24;1.70;;;0.63;;
41653;SDS011;30790;52.030;7.110;2022-07-06T02:51:50;1.38;;;0.80;;
41653;SDS011;30790;52.030;7.110;2022-07-06T02:54:15;0.80;;;0.50;;
41653;SDS011;30790;52.030;7.110;2022-07-06T02:56:40;1.13;;;0.65;;
41653;SDS011;30790;52.030;7.110;2022-07-06T02:59:06;1.90;;;0.85;;
41653;SDS011;30790;52.030;7.110;2022-07-06T03:01:31;0.93;;;0.65;;
41653;SDS011;30790;52.030;7.110;2022-07-06T03:03:56;1.15;;;0.70;;
41653;SDS011;30790;52.030;7.110;2022-07-06T03:06:22;1.20;;;0.70;;
41653;SDS011;30790;52.030;7.110;2022-07-06T03:08:47;0.95;;;0.77;;
41653;SDS011;30790;52.030;7.110;2022-07-06T03:11:12;0.75;;;0.52;;
41653;SDS011;30790;52.030;7.110;2022-07-06T03:13:37;0.80;;;0.70;;
41653;SDS011;30790;52.030;7.110;2022-07-06T03:16:03;2.10;;;0.93;;
41653;SDS011;30790;52.030;7.110;2022-07-06T03:18:28;6.05;;;0.75;;
41653;SDS011;30790;52.030;7.110;2022-07-06T03:20:54;1.30;;;0.77;;
41653;SDS011;30790;52.030;7.110;2022-07-06T03:23:19;0.63;;;0.50;;
41653;SDS011;30790;52.030;7.110;2022-07-06T03:25:45;1.48;;;0.63;;
41653;SDS011;30790;52.030;7.110;2022-07-06T03:28:10;0.88;;;0.60;;
41653;SDS011;30790;52.030;7.110;2022-07-06T03:30:36;1.35;;;0.70;;
41653;SDS011;30790;52.030;7.110;2022-07-06T03:33:01;2.08;;;1.02;;
41653;SDS011;30790;52.030;7.110;2022-07-06T03:35:26;1.10;;;0.57;;
41653;SDS011;30790;52.030;7.110;2022-07-06T03:37:52;0.60;;;0.60;;
41653;SDS011;30790;52.030;7.110;2022-07-06T03:40:17;1.67;;;0.60;;
41653;SDS011;30790;52.030;7.110;2022-07-06T03:42:42;1.60;;;0.63;;
41653;SDS011;30790;52.030;7.110;2022-07-06T03:45:08;1.17;;;0.70;;
41653;SDS011;30790;52.030;7.110;2022-07-06T03:47:34;0.93;;;0.60;;
41653;SDS011;30790;52.030;7.110;2022-07-06T03:49:59;0.88;;;0.50;;
41653;SDS011;30790;52.030;7.110;2022-07-06T03:52:24;1.13;;;0.70;;
41653;SDS011;30790;52.030;7.110;2022-07-06T03:54:49;1.00;;;0.52;;
41653;SDS011;30790;52.030;7.110;2022-07-06T03:57:15;2.17;;;0.73;;
41653;SDS011;30790;52.030;7.110;2022-07-06T03:59:40;3.28;;;1.13;;
41653;SDS011;30790;52.030;7.110;2022-07-06T04:02:06;1.45;;;0.47;;
41653;SDS011;30790;52.030;7.110;2022-07-06T04:04:31;1.05;;;0.75;;
41653;SDS011;30790;52.030;7.110;2022-07-06T04:06:58;1.35;;;0.63;;
41653;SDS011;30790;52.030;7.110;2022-07-06T04:09:24;1.63;;;0.70;;
41653;SDS011;30790;52.030;7.110;2022-07-06T04:11:49;2.15;;;1.00;;
41653;SDS011;30790;52.030;7.110;2022-07-06T04:14:14;0.60;;;0.50;;
41653;SDS011;30790;52.030;7.110;2022-07-06T04:16:39;1.73;;;0.85;;
41653;SDS011;30790;52.030;7.110;2022-07-06T04:19:05;0.65;;;0.47;;
41653;SDS011;30790;52.030;7.110;2022-07-06T04:21:30;4.55;;;1.15;;
41653;SDS011;30790;52.030;7.110;2022-07-06T04:23:55;3.88;;;0.82;;
41653;SDS011;30790;52.030;7.110;2022-07-06T04:26:21;4.47;;;1.83;;
41653;SDS011;30790;52.030;7.110;2022-07-06T04:28:46;3.00;;;0.80;;
41653;SDS011;30790;52.030;7.110;2022-07-06T04:31:11;8.60;;;0.88;;
41653;SDS011;30790;52.030;7.110;2022-07-06T04:33:40;2.25;;;0.80;;
41653;SDS011;30790;52.030;7.110;2022-07-06T04:36:06;1.75;;;0.70;;
41653;SDS011;30790;52.030;7.110;2022-07-06T04:38:31;1.10;;;0.65;;
41653;SDS011;30790;52.030;7.110;2022-07-06T04:40:57;5.80;;;0.80;;
41653;SDS011;30790;52.030;7.110;2022-07-06T04:43:22;1.55;;;0.95;;
41653;SDS011;30790;52.030;7.110;2022-07-06T04:45:47;8.18;;;0.90;;
41653;SDS011;30790;52.030;7.110;2022-07-06T04:48:12;4.07;;;1.02;;
41653;SDS011;30790;52.030;7.110;2022-07-06T04:50:38;1.10;;;0.77;;
41653;SDS011;30790;52.030;7.110;2022-07-06T04:53:03;2.95;;;1.10;;
41653;SDS011;30790;52.030;7.110;2022-07-06T04:55:29;4.43;;;1.02;;
41653;SDS011;30790;52.030;7.110;2022-07-06T04:57:54;7.95;;;1.67;;
41653;SDS011;30790;52.030;7.110;2022-07-06T05:00:20;5.15;;;1.55;;
41653;SDS011;30790;52.030;7.110;2022-07-06T05:02:45;5.85;;;1.63;;
41653;SDS011;30790;52.030;7.110;2022-07-06T05:05:11;5.13;;;1.10;;
41653;SDS011;30790;52.030;7.110;2022-07-06T05:07:36;5.35;;;1.73;;
41653;SDS011;30790;52.030;7.110;2022-07-06T05:10:05;4.28;;;1.40;;
41653;SDS011;30790;52.030;7.110;2022-07-06T05:12:31;3.25;;;1.38;;
41653;SDS011;30790;52.030;7.110;2022-07-06T05:14:57;3.97;;;1.20;;
41653;SDS011;30790;52.030;7.110;2022-07-06T05:17:22;7.38;;;1.60;;
41653;SDS011;30790;52.030;7.110;2022-07-06T05:19:47;3.50;;;1.50;;
41653;SDS011;30790;52.030;7.110;2022-07-06T05:22:13;5.78;;;1.83;;
41653;SDS011;30790;52.030;7.110;2022-07-06T05:24:38;3.83;;;1.92;;
41653;SDS011;30790;52.030;7.110;2022-07-06T05:27:04;5.72;;;1.30;;
41653;SDS011;30790;52.030;7.110;2022-07-06T05:29:29;4.80;;;2.13;;
41653;SDS011;30790;52.030;7.110;2022-07-06T05:31:54;7.18;;;2.13;;
41653;SDS011;30790;52.030;7.110;2022-07-06T05:34:19;4.45;;;1.65;;
41653;SDS011;30790;52.030;7.110;2022-07-06T05:36:45;8.05;;;1.80;;
41653;SDS011;30790;52.030;7.110;2022-07-06T05:39:10;4.55;;;1.65;;
41653;SDS011;30790;52.030;7.110;2022-07-06T05:41:35;4.18;;;1.67;;
41653;SDS011;30790;52.030;7.110;2022-07-06T05:44:01;7.93;;;1.60;;
41653;SDS011;30790;52.030;7.110;2022-07-06T05:46:26;7.30;;;1.60;;
41653;SDS011;30790;52.030;7.110;2022-07-06T05:48:53;6.78;;;1.95;;
41653;SDS011;30790;52.030;7.110;2022-07-06T05:51:37;4.82;;;1.50;;
41653;SDS011;30790;52.030;7.110;2022-07-06T05:54:02;1.73;;;1.58;;
41653;SDS011;30790;52.030;7.110;2022-07-06T05:56:27;7.30;;;1.75;;
41653;SDS011;30790;52.030;7.110;2022-07-06T05:58:53;11.02;;;2.35;;
41653;SDS011;30790;52.030;7.110;2022-07-06T06:01:18;9.35;;;1.55;;
41653;SDS011;30790;52.030;7.110;2022-07-06T06:03:43;5.25;;;1.35;;
41653;SDS011;30790;52.030;7.110;2022-07-06T06:06:08;6.53;;;1.70;;
41653;SDS011;30790;52.030;7.110;2022-07-06T06:08:34;2.88;;;1.38;;
41653;SDS011;30790;52.030;7.110;2022-07-06T06:10:59;5.43;;;1.40;;
41653;SDS011;30790;52.030;7.110;2022-07-06T06:13:24;7.35;;;1.52;;
41653;SDS011;30790;52.030;7.110;2022-07-06T06:15:50;4.85;;;1.20;;
41653;SDS011;30790;52.030;7.110;2022-07-06T06:18:15;3.60;;;1.30;;
41653;SDS011;30790;52.030;7.110;2022-07-06T06:20:42;4.60;;;1.40;;
41653;SDS011;30790;52.030;7.110;2022-07-06T06:23:07;6.20;;;1.38;;
41653;SDS011;30790;52.030;7.110;2022-07-06T06:25:34;6.00;;;1.42;;
41653;SDS011;30790;52.030;7.110;2022-07-06T06:28:02;2.05;;;1.00;;
41653;SDS011;30790;52.030;7.110;2022-07-06T06:30:29;6.07;;;1.42;;
41653;SDS011;30790;52.030;7.110;2022-07-06T06:33:05;6.65;;;1.45;;
41653;SDS011;30790;52.030;7.110;2022-07-06T06:35:32;6.57;;;1.35;;
41653;SDS011;30790;52.030;7.110;2022-07-06T06:37:57;2.88;;;0.93;;
41653;SDS011;30790;52.030;7.110;2022-07-06T06:40:23;3.55;;;1.10;;
41653;SDS011;30790;52.030;7.110;2022-07-06T06:42:48;4.85;;;1.40;;
41653;SDS011;30790;52.030;7.110;2022-07-06T06:45:13;3.72;;;1.13;;
41653;SDS011;30790;52.030;7.110;2022-07-06T06:47:38;4.25;;;1.20;;
41653;SDS011;30790;52.030;7.110;2022-07-06T06:50:04;8.93;;;1.55;;
41653;SDS011;30790;52.030;7.110;2022-07-06T06:52:30;11.20;;;1.48;;
41653;SDS011;30790;52.030;7.110;2022-07-06T06:54:55;12.13;;;2.08;;
41653;SDS011;30790;52.030;7.110;2022-07-06T06:57:20;7.65;;;1.77;;
41653;SDS011;30790;52.030;7.110;2022-07-06T06:59:45;7.38;;;1.48;;
41653;SDS011;30790;52.030;7.110;2022-07-06T07:02:11;7.00;;;1.50;;
41653;SDS011;30790;52.030;7.110;2022-07-06T07:04:36;14.07;;;1.30;;
41653;SDS011;30790;52.030;7.110;2022-07-06T07:07:01;10.02;;;1.75;;
41653;SDS011;30790;52.030;7.110;2022-07-06T07:09:27;8.20;;;1.30;;
41653;SDS011;30790;52.030;7.110;2022-07-06T07:11:52;10.45;;;1.58;;
41653;SDS011;30790;52.030;7.110;2022-07-06T07:14:17;13.60;;;1.92;;
41653;SDS011;30790;52.030;7.110;2022-07-06T07:16:43;9.40;;;1.52;;
41653;SDS011;30790;52.030;7.110;2022-07-06T07:19:08;4.05;;;1.45;;
41653;SDS011;30790;52.030;7.110;2022-07-06T07:21:33;14.60;;;1.60;;
41653;SDS011;30790;52.030;7.110;2022-07-06T07:23:59;7.35;;;1.23;;
41653;SDS011;30790;52.030;7.110;2022-07-06T07:26:24;9.35;;;1.45;;
41653;SDS011;30790;52.030;7.110;2022-07-06T07:28:49;8.27;;;1.73;;
41653;SDS011;30790;52.030;7.110;2022-07-06T07:31:14;6.22;;;1.30;;
41653;SDS011;30790;52.030;7.110;2022-07-06T07:33:40;8.73;;;1.20;;
41653;SDS011;30790;52.030;7.110;2022-07-06T07:36:05;8.35;;;1.25;;
41653;SDS011;30790;52.030;7.110;2022-07-06T07:38:30;6.03;;;1.27;;
41653;SDS011;30790;52.030;7.110;2022-07-06T07:40:56;9.52;;;1.67;;
41653;SDS011;30790;52.030;7.110;2022-07-06T07:43:21;7.25;;;1.60;;
41653;SDS011;30790;52.030;7.110;2022-07-06T07:45:47;10.20;;;1.33;;
41653;SDS011;30790;52.030;7.110;2022-07-06T07:48:13;5.53;;;0.98;;
41653;SDS011;30790;52.030;7.110;2022-07-06T07:50:40;6.60;;;1.30;;
41653;SDS011;30790;52.030;7.110;2022-07-06T07:53:05;6.97;;;1.40;;
41653;SDS011;30790;52.030;7.110;2022-07-06T07:55:31;4.13;;;0.90;;
41653;SDS011;30790;52.030;7.110;2022-07-06T07:57:56;4.22;;;1.20;;
41653;SDS011;30790;52.030;7.110;2022-07-06T08:00:21;9.02;;;1.45;;
41653;SDS011;30790;52.030;7.110;2022-07-06T08:02:47;4.88;;;1.30;;
41653;SDS011;30790;52.030;7.110;2022-07-06T08:05:12;7.72;;;1.60;;
41653;SDS011;30790;52.030;7.110;2022-07-06T08:07:40;5.05;;;1.63;;
41653;SDS011;30790;52.030;7.110;2022-07-06T08:10:06;12.85;;;1.38;;
41653;SDS011;30790;52.030;7.110;2022-07-06T08:12:32;6.82;;;1.50;;
41653;SDS011;30790;52.030;7.110;2022-07-06T08:14:57;9.27;;;1.55;;
41653;SDS011;30790;52.030;7.110;2022-07-06T08:17:23;4.70;;;0.98;;
41653;SDS011;30790;52.030;7.110;2022-07-06T08:19:49;10.45;;;1.92;;
41653;SDS011;30790;52.030;7.110;2022-07-06T08:22:14;10.38;;;1.00;;
41653;SDS011;30790;52.030;7.110;2022-07-06T08:24:39;9.68;;;1.23;;
41653;SDS011;30790;52.030;7.110;2022-07-06T08:27:05;7.15;;;1.40;;
41653;SDS011;30790;52.030;7.110;2022-07-06T08:29:30;5.43;;;1.08;;
41653;SDS011;30790;52.030;7.110;2022-07-06T08:31:56;8.77;;;1.88;;
41653;SDS011;30790;52.030;7.110;2022-07-06T08:34:21;10.30;;;1.50;;
41653;SDS011;30790;52.030;7.110;2022-07-06T08:36:47;9.48;;;1.52;;
41653;SDS011;30790;52.030;7.110;2022-07-06T08:39:13;8.95;;;1.60;;
41653;SDS011;30790;52.030;7.110;2022-07-06T08:41:38;7.85;;;1.45;;
41653;SDS011;30790;52.030;7.110;2022-07-06T08:44:06;11.63;;;1.10;;
41653;SDS011;30790;52.030;7.110;2022-07-06T08:46:33;9.25;;;1.10;;
41653;SDS011;30790;52.030;7.110;2022-07-06T08:49:02;5.68;;;1.30;;
41653;SDS011;30790;52.030;7.110;2022-07-06T08:51:29;7.70;;;1.35;;
41653;SDS011;30790;52.030;7.110;2022-07-06T08:53:55;7.13;;;1.52;;
41653;SDS011;30790;52.030;7.110;2022-07-06T08:56:22;7.68;;;1.42;;
41653;SDS011;30790;52.030;7.110;2022-07-06T08:58:48;10.55;;;1.45;;
41653;SDS011;30790;52.030;7.110;2022-07-06T09:01:14;6.20;;;1.52;;
41653;SDS011;30790;52.030;7.110;2022-07-06T09:03:42;7.75;;;1.35;;
41653;SDS011;30790;52.030;7.110;2022-07-06T09:06:10;5.90;;;1.27;;
41653;SDS011;30790;52.030;7.110;2022-07-06T09:08:40;8.10;;;1.42;;
41653;SDS011;30790;52.030;7.110;2022-07-06T09:11:05;6.50;;;1.70;;
41653;SDS011;30790;52.030;7.110;2022-07-06T09:13:31;9.27;;;1.48;;
41653;SDS011;30790;52.030;7.110;2022-07-06T09:15:56;7.80;;;1.55;;
41653;SDS011;30790;52.030;7.110;2022-07-06T09:18:36;7.95;;;1.45;;
41653;SDS011;30790;52.030;7.110;2022-07-06T09:21:02;4.57;;;0.82;;
41653;SDS011;30790;52.030;7.110;2022-07-06T09:23:28;3.42;;;1.15;;
41653;SDS011;30790;52.030;7.110;2022-07-06T09:25:53;10.23;;;1.23;;
41653;SDS011;30790;52.030;7.110;2022-07-06T09:28:19;4.28;;;1.23;;
41653;SDS011;30790;52.030;7.110;2022-07-06T09:30:45;4.95;;;0.90;;
41653;SDS011;30790;52.030;7.110;2022-07-06T09:33:10;10.77;;;1.23;;
41653;SDS011;30790;52.030;7.110;2022-07-06T09:35:37;6.05;;;1.38;;
41653;SDS011;30790;52.030;7.110;2022-07-06T09:38:05;11.18;;;1.63;;
41653;SDS011;30790;52.030;7.110;2022-07-06T09:40:43;7.53;;;1.30;;
41653;SDS011;30790;52.030;7.110;2022-07-06T09:43:13;2.72;;;0.80;;
41653;SDS011;30790;52.030;7.110;2022-07-06T09:45:41;7.32;;;1.08;;
41653;SDS011;30790;52.030;7.110;2022-07-06T09:48:10;8.75;;;1.20;;
41653;SDS011;30790;52.030;7.110;2022-07-06T09:50:43;7.45;;;1.17;;
41653;SDS011;30790;52.030;7.110;2022-07-06T09:53:11;6.40;;;1.08;;
41653;SDS011;30790;52.030;7.110;2022-07-06T09:55:37;3.08;;;1.15;;
41653;SDS011;30790;52.030;7.110;2022-07-06T09:58:03;5.50;;;1.55;;
41653;SDS011;30790;52.030;7.110;2022-07-06T10:00:29;4.07;;;1.00;;
41653;SDS011;30790;52.030;7.110;2022-07-06T10:02:54;5.32;;;1.25;;
41653;SDS011;30790;52.030;7.110;2022-07-06T10:05:19;8.15;;;1.15;;
41653;SDS011;30790;52.030;7.110;2022-07-06T10:07:54;11.73;;;1.45;;
41653;SDS011;30790;52.030;7.110;2022-07-06T10:10:23;5.18;;;1.02;;
41653;SDS011;30790;52.030;7.110;2022-07-06T10:12:50;6.70;;;1.52;;
41653;SDS011;30790;52.030;7.110;2022-07-06T10:15:19;3.60;;;0.60;;
41653;SDS011;30790;52.030;7.110;2022-07-06T10:17:47;6.00;;;1.00;;
41653;SDS011;30790;52.030;7.110;2022-07-06T10:20:14;8.68;;;1.45;;
41653;SDS011;30790;52.030;7.110;2022-07-06T10:22:40;9.50;;;1.58;;
41653;SDS011;30790;52.030;7.110;2022-07-06T10:25:06;9.48;;;1.20;;
41653;SDS011;30790;52.030;7.110;2022-07-06T10:27:32;5.90;;;0.90;;
41653;SDS011;30790;52.030;7.110;2022-07-06T10:29:59;6.53;;;1.52;;
41653;SDS011;30790;52.030;7.110;2022-07-06T10:32:26;5.43;;;1.13;;
41653;SDS011;30790;52.030;7.110;2022-07-06T10:34:53;6.85;;;1.00;;
41653;SDS011;30790;52.030;7.110;2022-07-06T10:37:25;2.63;;;0.90;;
41653;SDS011;30790;52.030;7.110;2022-07-06T10:39:51;5.03;;;1.55;;
41653;SDS011;30790;52.030;7.110;2022-07-06T10:42:46;3.30;;;0.97;;
41653;SDS011;30790;52.030;7.110;2022-07-06T10:45:20;4.80;;;1.00;;
41653;SDS011;30790;52.030;7.110;2022-07-06T10:50:36;10.07;;;1.10;;
41653;SDS011;30790;52.030;7.110;2022-07-06T10:53:10;11.80;;;1.65;;
41653;SDS011;30790;52.030;7.110;2022-07-06T10:55:40;1.75;;;0.70;;
41653;SDS011;30790;52.030;7.110;2022-07-06T10:58:07;4.50;;;0.93;;
41653;SDS011;30790;52.030;7.110;2022-07-06T11:01:06;3.35;;;0.75;;
41653;SDS011;30790;52.030;7.110;2022-07-06T11:03:32;5.55;;;1.27;;
41653;SDS011;30790;52.030;7.110;2022-07-06T11:05:58;9.27;;;1.58;;
41653;SDS011;30790;52.030;7.110;2022-07-06T11:16:27;5.30;;;1.05;;
41653;SDS011;30790;52.030;7.110;2022-07-06T11:19:09;4.18;;;1.02;;
41653;SDS011;30790;52.030;7.110;2022-07-06T11:21:40;3.90;;;1.10;;
41653;SDS011;30790;52.030;7.110;2022-07-06T11:24:07;4.53;;;1.35;;
41653;SDS011;30790;52.030;7.110;2022-07-06T11:26:35;2.53;;;0.82;;
41653;SDS011;30790;52.030;7.110;2022-07-06T11:29:03;8.38;;;1.63;;
41653;SDS011;30790;52.030;7.110;2022-07-06T11:31:32;3.97;;;1.08;;
41653;SDS011;30790;52.030;7.110;2022-07-06T11:33:58;2.55;;;0.90;;
41653;SDS011;30790;52.030;7.110;2022-07-06T11:36:24;3.85;;;0.98;;
41653;SDS011;30790;52.030;7.110;2022-07-06T11:38:49;2.45;;;0.73;;
41653;SDS011;30790;52.030;7.110;2022-07-06T11:41:15;9.38;;;1.00;;
41653;SDS011;30790;52.030;7.110;2022-07-06T11:43:42;1.42;;;0.43;;
41653;SDS011;30790;52.030;7.110;2022-07-06T11:46:20;4.43;;;0.98;;
41653;SDS011;30790;52.030;7.110;2022-07-06T11:48:50;5.30;;;0.80;;
41653;SDS011;30790;52.030;7.110;2022-07-06T11:51:17;3.13;;;0.80;;
41653;SDS011;30790;52.030;7.110;2022-07-06T11:53:47;5.82;;;0.77;;
41653;SDS011;30790;52.030;7.110;2022-07-06T11:56:15;6.78;;;0.85;;
41653;SDS011;30790;52.030;7.110;2022-07-06T11:58:43;2.95;;;0.60;;
41653;SDS011;30790;52.030;7.110;2022-07-06T12:01:11;6.45;;;0.70;;
41653;SDS011;30790;52.030;7.110;2022-07-06T12:03:37;3.50;;;0.65;;
41653;SDS011;30790;52.030;7.110;2022-07-06T12:06:03;4.57;;;0.90;;
41653;SDS011;30790;52.030;7.110;2022-07-06T12:08:30;4.50;;;1.13;;
41653;SDS011;30790;52.030;7.110;2022-07-06T12:10:58;3.22;;;0.80;;
41653;SDS011;30790;52.030;7.110;2022-07-06T12:13:24;4.30;;;1.02;;
41653;SDS011;30790;52.030;7.110;2022-07-06T12:15:49;2.30;;;0.70;;
41653;SDS011;30790;52.030;7.110;2022-07-06T12:18:15;2.63;;;0.50;;
41653;SDS011;30790;52.030;7.110;2022-07-06T12:20:40;3.53;;;0.70;;
41653;SDS011;30790;52.030;7.110;2022-07-06T12:23:06;3.58;;;1.00;;
41653;SDS011;30790;52.030;7.110;2022-07-06T12:25:33;3.08;;;0.77;;
41653;SDS011;30790;52.030;7.110;2022-07-06T12:28:00;2.92;;;0.88;;
41653;SDS011;30790;52.030;7.110;2022-07-06T12:30:25;5.85;;;1.38;;
41653;SDS011;30790;52.030;7.110;2022-07-06T12:35:36;1.90;;;0.85;;
41653;SDS011;30790;52.030;7.110;2022-07-06T12:38:01;3.47;;;0.80;;
41653;SDS011;30790;52.030;7.110;2022-07-06T12:40:27;1.23;;;0.65;;
41653;SDS011;30790;52.030;7.110;2022-07-06T12:42:56;2.25;;;0.65;;
41653;SDS011;30790;52.030;7.110;2022-07-06T12:45:30;3.03;;;0.80;;
41653;SDS011;30790;52.030;7.110;2022-07-06T12:48:00;2.60;;;0.60;;
41653;SDS011;30790;52.030;7.110;2022-07-06T12:50:34;2.10;;;0.98;;
41653;SDS011;30790;52.030;7.110;2022-07-06T12:53:01;6.50;;;0.75;;
41653;SDS011;30790;52.030;7.110;2022-07-06T12:55:28;5.90;;;1.02;;
41653;SDS011;30790;52.030;7.110;2022-07-06T12:57:54;2.53;;;0.55;;
41653;SDS011;30790;52.030;7.110;2022-07-06T13:00:20;2.28;;;1.27;;
41653;SDS011;30790;52.030;7.110;2022-07-06T13:02:51;2.22;;;0.90;;
41653;SDS011;30790;52.030;7.110;2022-07-06T13:05:26;6.68;;;1.00;;
41653;SDS011;30790;52.030;7.110;2022-07-06T13:07:55;2.70;;;0.52;;
41653;SDS011;30790;52.030;7.110;2022-07-06T13:10:22;4.97;;;0.60;;
41653;SDS011;30790;52.030;7.110;2022-07-06T13:12:48;5.25;;;0.90;;
41653;SDS011;30790;52.030;7.110;2022-07-06T13:15:15;2.28;;;0.70;;
41653;SDS011;30790;52.030;7.110;2022-07-06T13:17:40;4.53;;;0.98;;
41653;SDS011;30790;52.030;7.110;2022-07-06T13:20:10;4.43;;;0.88;;
41653;SDS011;30790;52.030;7.110;2022-07-06T13:22:37;2.67;;;0.70;;
41653;SDS011;30790;52.030;7.110;2022-07-06T13:25:03;3.30;;;0.80;;
41653;SDS011;30790;52.030;7.110;2022-07-06T13:27:29;3.08;;;0.82;;
41653;SDS011;30790;52.030;7.110;2022-07-06T13:29:55;2.53;;;0.50;;
41653;SDS011;30790;52.030;7.110;2022-07-06T13:32:20;1.77;;;0.60;;
41653;SDS011;30790;52.030;7.110;2022-07-06T13:34:47;4.45;;;1.17;;
41653;SDS011;30790;52.030;7.110;2022-07-06T13:37:12;5.22;;;0.82;;
41653;SDS011;30790;52.030;7.110;2022-07-06T13:39:38;2.25;;;0.88;;
41653;SDS011;30790;52.030;7.110;2022-07-06T13:42:03;1.92;;;0.50;;
41653;SDS011;30790;52.030;7.110;2022-07-06T13:44:29;1.80;;;0.70;;
41653;SDS011;30790;52.030;7.110;2022-07-06T13:46:54;2.50;;;0.82;;
41653;SDS011;30790;52.030;7.110;2022-07-06T13:49:20;1.83;;;0.75;;
41653;SDS011;30790;52.030;7.110;2022-07-06T13:51:45;6.28;;;1.00;;
41653;SDS011;30790;52.030;7.110;2022-07-06T13:54:11;12.20;;;1.25;;
41653;SDS011;30790;52.030;7.110;2022-07-06T13:56:37;5.80;;;1.25;;
41653;SDS011;30790;52.030;7.110;2022-07-06T13:59:04;10.23;;;1.45;;
41653;SDS011;30790;52.030;7.110;2022-07-06T14:01:29;5.43;;;0.68;;
41653;SDS011;30790;52.030;7.110;2022-07-06T14:03:55;6.60;;;1.15;;
41653;SDS011;30790;52.030;7.110;2022-07-06T14:06:20;17.30;;;1.20;;
41653;SDS011;30790;52.030;7.110;2022-07-06T14:08:46;6.07;;;1.08;;
41653;SDS011;30790;52.030;7.110;2022-07-06T14:11:11;4.03;;;0.98;;
41653;SDS011;30790;52.030;7.110;2022-07-06T14:13:36;5.07;;;0.55;;
41653;SDS011;30790;52.030;7.110;2022-07-06T14:16:03;10.43;;;1.48;;
41653;SDS011;30790;52.030;7.110;2022-07-06T14:18:29;10.68;;;1.58;;
41653;SDS011;30790;52.030;7.110;2022-07-06T14:20:55;2.88;;;0.98;;
41653;SDS011;30790;52.030;7.110;2022-07-06T14:23:21;5.60;;;1.25;;
41653;SDS011;30790;52.030;7.110;2022-07-06T14:25:47;5.18;;;0.90;;
41653;SDS011;30790;52.030;7.110;2022-07-06T14:28:13;5.72;;;1.00;;
41653;SDS011;30790;52.030;7.110;2022-07-06T14:30:39;10.45;;;1.27;;
41653;SDS011;30790;52.030;7.110;2022-07-06T14:33:06;8.82;;;1.10;;
41653;SDS011;30790;52.030;7.110;2022-07-06T14:35:53;7.70;;;1.00;;
41653;SDS011;30790;52.030;7.110;2022-07-06T14:40:43;10.98;;;1.40;;
41653;SDS011;30790;52.030;7.110;2022-07-06T14:43:09;12.68;;;1.45;;
41653;SDS011;30790;52.030;7.110;2022-07-06T14:45:35;4.15;;;1.00;;
41653;SDS011;30790;52.030;7.110;2022-07-06T14:48:01;8.52;;;1.17;;
41653;SDS011;30790;52.030;7.110;2022-07-06T14:50:27;4.03;;;1.00;;
41653;SDS011;30790;52.030;7.110;2022-07-06T14:52:53;11.05;;;1.83;;
41653;SDS011;30790;52.030;7.110;2022-07-06T14:55:18;11.40;;;1.42;;
41653;SDS011;30790;52.030;7.110;2022-07-06T14:57:44;7.60;;;1.27;;